Time;durP1;ratioP1;P1;durP2;ratioP2;P2;SDS_P1;SDS_P2;PMS_P1;PMS_P2;Temp;Humidity;BMP_temperature;BMP_pressure;BME280_temperature;BME280_humidity;BME280_pressure;Samples;Min_cycle;Max_cycle;Signal;HPM_P1;HPM_P2
2024/01/18 00:01:27;;;;;;;19.27;11.75;;;;;;;;;;5073524;28;20120;-84
2024/01/18 00:03:53;;;;;;;17.90;11.90;;;;;;;;;;5065410;28;20023;-85
2024/01/18 00:06:19;;;;;;;18.90;11.15;;;;;;;;;;5066047;28;20077;-84
2024/01/18 00:08:44;;;;;;;17.20;10.80;;;;;;;;;;5047783;28;20029;-85
2024/01/18 00:11:10;;;;;;;18.25;10.88;;;;;;;;;;5068027;28;20030;-86
2024/01/18 00:13:35;;;;;;;19.08;11.90;;;;;;;;;;5063960;28;20483;-86
2024/01/18 00:16:01;;;;;;;18.40;11.40;;;;;;;;;;5049693;28;20451;-85
2024/01/18 00:18:26;;;;;;;20.52;12.13;;;;;;;;;;5054232;28;20032;-76
2024/01/18 00:20:52;;;;;;;17.50;11.77;;;;;;;;;;5063543;28;20036;-75
2024/01/18 00:23:20;;;;;;;19.52;12.30;;;;;;;;;;5066479;28;20024;-76
2024/01/18 00:25:46;;;;;;;16.80;11.35;;;;;;;;;;5064627;28;20063;-76
2024/01/18 00:28:12;;;;;;;18.52;12.07;;;;;;;;;;5070190;28;20032;-75
2024/01/18 00:30:39;;;;;;;17.27;11.55;;;;;;;;;;5064750;28;20036;-76
2024/01/18 00:33:04;;;;;;;17.92;10.82;;;;;;;;;;5069052;28;20029;-76
2024/01/18 00:35:32;;;;;;;17.63;11.57;;;;;;;;;;5067372;28;20032;-76
2024/01/18 00:37:58;;;;;;;17.73;11.30;;;;;;;;;;5065455;28;20474;-75
2024/01/18 00:40:23;;;;;;;24.35;12.70;;;;;;;;;;5065111;28;20040;-76
2024/01/18 00:42:48;;;;;;;18.08;10.75;;;;;;;;;;5049784;28;20489;-76
2024/01/18 00:45:14;;;;;;;18.50;11.27;;;;;;;;;;5040823;28;20032;-76
2024/01/18 00:47:39;;;;;;;16.52;11.27;;;;;;;;;;5050941;28;20028;-76
2024/01/18 00:50:06;;;;;;;19.55;12.07;;;;;;;;;;5067026;28;21601;-76
2024/01/18 00:52:31;;;;;;;19.30;12.15;;;;;;;;;;5068501;28;20028;-76
2024/01/18 00:54:57;;;;;;;18.63;12.15;;;;;;;;;;5052199;28;20043;-75
2024/01/18 00:57:22;;;;;;;21.75;12.95;;;;;;;;;;5049064;28;20028;-76
2024/01/18 00:59:47;;;;;;;18.80;11.70;;;;;;;;;;5068611;28;20016;-75
2024/01/18 01:02:13;;;;;;;17.52;11.30;;;;;;;;;;5065912;28;20046;-76
2024/01/18 01:04:38;;;;;;;19.38;11.90;;;;;;;;;;5065685;28;20508;-76
2024/01/18 01:07:04;;;;;;;18.13;11.75;;;;;;;;;;5045942;28;20082;-75
2024/01/18 01:09:29;;;;;;;21.35;12.02;;;;;;;;;;5068412;28;20029;-76
2024/01/18 01:11:56;;;;;;;17.13;11.13;;;;;;;;;;5050018;28;20606;-76
2024/01/18 01:14:21;;;;;;;16.77;11.00;;;;;;;;;;5046701;28;20094;-76
2024/01/18 01:16:47;;;;;;;17.00;10.80;;;;;;;;;;5051791;28;20051;-76
2024/01/18 01:19:12;;;;;;;18.45;12.32;;;;;;;;;;5048965;28;20394;-76
2024/01/18 01:21:38;;;;;;;19.15;11.80;;;;;;;;;;5066746;28;20042;-77
2024/01/18 01:24:03;;;;;;;17.48;12.07;;;;;;;;;;5048788;28;20489;-76
2024/01/18 01:26:29;;;;;;;18.08;12.13;;;;;;;;;;5066897;28;20040;-76
2024/01/18 01:28:54;;;;;;;17.85;12.13;;;;;;;;;;5067211;28;20029;-84
2024/01/18 01:31:20;;;;;;;17.85;11.40;;;;;;;;;;5052933;28;20047;-86
2024/01/18 01:33:46;;;;;;;16.98;11.02;;;;;;;;;;5050108;28;20479;-84
2024/01/18 01:36:12;;;;;;;22.23;12.38;;;;;;;;;;5069074;28;20474;-85
2024/01/18 01:38:37;;;;;;;16.90;11.15;;;;;;;;;;5051566;28;20097;-86
2024/01/18 01:41:03;;;;;;;19.27;11.93;;;;;;;;;;5058653;28;20048;-85
2024/01/18 01:43:28;;;;;;;20.73;12.20;;;;;;;;;;5046083;28;20035;-85
2024/01/18 01:45:54;;;;;;;17.65;11.75;;;;;;;;;;5052587;28;20025;-86
2024/01/18 01:48:19;;;;;;;18.58;11.63;;;;;;;;;;5062845;28;20074;-85
2024/01/18 01:50:47;;;;;;;18.77;11.57;;;;;;;;;;5063977;28;20035;-86
2024/01/18 01:53:15;;;;;;;18.08;11.65;;;;;;;;;;5053793;28;20033;-87
2024/01/18 01:55:42;;;;;;;18.20;11.60;;;;;;;;;;5065082;28;20115;-86
2024/01/18 01:58:08;;;;;;;19.60;11.95;;;;;;;;;;5048020;28;20055;-85
2024/01/18 02:00:34;;;;;;;18.98;12.10;;;;;;;;;;5049251;28;20184;-85
2024/01/18 02:02:59;;;;;;;19.75;13.25;;;;;;;;;;5068963;28;20386;-85
2024/01/18 02:05:26;;;;;;;20.75;12.35;;;;;;;;;;5066668;28;20040;-86
2024/01/18 02:07:52;;;;;;;19.33;11.90;;;;;;;;;;5065524;28;20032;-85
2024/01/18 02:10:17;;;;;;;17.98;11.50;;;;;;;;;;5069393;28;20416;-85
2024/01/18 02:12:44;;;;;;;20.60;12.60;;;;;;;;;;5045492;28;20370;-85
2024/01/18 02:15:10;;;;;;;20.92;12.13;;;;;;;;;;5050097;28;20028;-86
2024/01/18 02:17:35;;;;;;;20.70;12.48;;;;;;;;;;5060986;28;20066;-87
2024/01/18 02:20:01;;;;;;;18.00;12.07;;;;;;;;;;5046745;28;20024;-85
2024/01/18 02:22:28;;;;;;;17.48;11.82;;;;;;;;;;5066008;28;20556;-85
2024/01/18 02:25:20;;;;;;;19.13;12.38;;;;;;;;;;5047834;28;20024;-85
2024/01/18 02:27:45;;;;;;;17.38;11.13;;;;;;;;;;5065691;28;20020;-84
2024/01/18 02:30:11;;;;;;;19.48;12.07;;;;;;;;;;5050585;28;20127;-87
2024/01/18 02:32:37;;;;;;;18.73;11.95;;;;;;;;;;5043450;28;20478;-84
2024/01/18 02:35:02;;;;;;;18.63;11.60;;;;;;;;;;5052903;28;20036;-85
2024/01/18 02:37:28;;;;;;;18.60;11.95;;;;;;;;;;5051486;28;20111;-77
2024/01/18 02:39:53;;;;;;;18.63;11.45;;;;;;;;;;5047302;28;20120;-76
2024/01/18 02:42:19;;;;;;;18.40;11.68;;;;;;;;;;5066244;28;20033;-76
2024/01/18 02:44:45;;;;;;;17.48;11.50;;;;;;;;;;5041811;28;20021;-76
2024/01/18 02:47:12;;;;;;;18.05;11.80;;;;;;;;;;5064377;28;20108;-76
2024/01/18 02:49:37;;;;;;;18.20;11.50;;;;;;;;;;5063181;28;20521;-76
2024/01/18 02:52:03;;;;;;;17.63;11.63;;;;;;;;;;5064781;28;20029;-76
2024/01/18 02:54:28;;;;;;;17.35;11.38;;;;;;;;;;5067642;28;20041;-76
2024/01/18 02:56:54;;;;;;;19.52;12.23;;;;;;;;;;5044596;28;20036;-76
2024/01/18 02:59:20;;;;;;;17.88;11.80;;;;;;;;;;5065846;28;20032;-76
2024/01/18 03:01:45;;;;;;;18.60;11.85;;;;;;;;;;5063670;28;20402;-76
2024/01/18 03:04:10;;;;;;;18.10;10.93;;;;;;;;;;5046624;28;20121;-76
2024/01/18 03:06:37;;;;;;;17.60;11.40;;;;;;;;;;5066596;28;20037;-76
2024/01/18 03:09:02;;;;;;;18.35;11.35;;;;;;;;;;5052010;28;20385;-76
2024/01/18 03:11:28;;;;;;;16.00;10.85;;;;;;;;;;5052225;28;20025;-76
2024/01/18 03:13:53;;;;;;;16.40;11.02;;;;;;;;;;5051835;28;20032;-76
2024/01/18 03:16:19;;;;;;;14.50;10.00;;;;;;;;;;5065191;28;20033;-76
2024/01/18 03:18:46;;;;;;;18.52;11.75;;;;;;;;;;5071534;28;20081;-76
2024/01/18 03:21:11;;;;;;;19.33;11.18;;;;;;;;;;5050648;28;20111;-76
2024/01/18 03:23:37;;;;;;;17.63;11.35;;;;;;;;;;5068016;28;20029;-75
2024/01/18 03:26:02;;;;;;;17.52;10.82;;;;;;;;;;5072169;28;20073;-76
2024/01/18 03:28:28;;;;;;;17.50;11.05;;;;;;;;;;5053287;28;20032;-76
2024/01/18 03:30:53;;;;;;;15.77;10.27;;;;;;;;;;5051789;28;20024;-76
2024/01/18 03:33:18;;;;;;;16.88;11.23;;;;;;;;;;5067562;28;20028;-76
2024/01/18 03:35:44;;;;;;;20.23;12.18;;;;;;;;;;5054441;28;20024;-76
2024/01/18 03:38:09;;;;;;;19.25;11.27;;;;;;;;;;5050246;28;20110;-76
2024/01/18 03:40:36;;;;;;;18.08;10.27;;;;;;;;;;5071785;28;20032;-76
2024/01/18 03:43:01;;;;;;;19.05;10.85;;;;;;;;;;5050936;28;20486;-76
2024/01/18 03:45:26;;;;;;;19.77;11.00;;;;;;;;;;5073568;28;20032;-76
2024/01/18 03:47:52;;;;;;;16.98;11.35;;;;;;;;;;5053957;28;20085;-86
2024/01/18 03:50:17;;;;;;;18.65;11.32;;;;;;;;;;5054389;28;20386;-85
2024/01/18 03:52:43;;;;;;;14.93;9.48;;;;;;;;;;5055110;28;20086;-86
2024/01/18 03:55:08;;;;;;;15.57;10.18;;;;;;;;;;5055160;28;20062;-85
2024/01/18 03:57:34;;;;;;;15.70;10.27;;;;;;;;;;5067271;28;20699;-86
2024/01/18 03:59:59;;;;;;;17.30;10.25;;;;;;;;;;5065091;28;20556;-86
2024/01/18 04:02:25;;;;;;;19.23;10.63;;;;;;;;;;5069506;28;20056;-86
2024/01/18 04:04:50;;;;;;;18.45;10.25;;;;;;;;;;5054001;28;20371;-86
2024/01/18 04:07:17;;;;;;;17.05;10.23;;;;;;;;;;5065545;28;20429;-86
2024/01/18 04:09:43;;;;;;;16.08;9.40;;;;;;;;;;5053997;28;20077;-85
2024/01/18 04:12:09;;;;;;;15.82;9.48;;;;;;;;;;5068318;28;20028;-86
2024/01/18 04:14:34;;;;;;;16.35;9.90;;;;;;;;;;5064688;28;20680;-85
2024/01/18 04:17:00;;;;;;;14.15;9.50;;;;;;;;;;5069081;28;20021;-86
2024/01/18 04:19:25;;;;;;;13.95;9.20;;;;;;;;;;5053918;28;20039;-86
2024/01/18 04:21:50;;;;;;;12.95;8.73;;;;;;;;;;5070048;28;20029;-86
2024/01/18 04:24:17;;;;;;;14.15;9.05;;;;;;;;;;5054513;28;20025;-86
2024/01/18 04:26:42;;;;;;;14.38;9.45;;;;;;;;;;5064503;28;20036;-85
2024/01/18 04:29:07;;;;;;;12.35;8.23;;;;;;;;;;5068955;28;20028;-85
2024/01/18 04:31:33;;;;;;;12.13;8.07;;;;;;;;;;5042579;28;20387;-86
2024/01/18 04:33:59;;;;;;;13.60;8.82;;;;;;;;;;5063551;28;20033;-85
2024/01/18 04:36:24;;;;;;;15.02;8.65;;;;;;;;;;5069922;28;20466;-85
2024/01/18 04:38:50;;;;;;;15.68;9.52;;;;;;;;;;5070346;28;20036;-85
2024/01/18 04:41:15;;;;;;;13.35;8.38;;;;;;;;;;5048000;28;20035;-85
2024/01/18 04:43:41;;;;;;;13.88;8.55;;;;;;;;;;5063615;28;20031;-87
2024/01/18 04:46:09;;;;;;;11.88;8.02;;;;;;;;;;5061314;28;20060;-87
2024/01/18 04:48:35;;;;;;;14.75;8.70;;;;;;;;;;5065947;28;20024;-86
2024/01/18 04:51:00;;;;;;;15.23;8.23;;;;;;;;;;5066191;28;20433;-86
2024/01/18 04:53:26;;;;;;;13.52;8.48;;;;;;;;;;5049220;28;20027;-86
2024/01/18 04:55:51;;;;;;;13.77;8.25;;;;;;;;;;5053047;28;20039;-85
2024/01/18 04:58:17;;;;;;;16.67;8.50;;;;;;;;;;5069024;28;20028;-76
2024/01/18 05:00:42;;;;;;;11.93;7.72;;;;;;;;;;5062809;28;20370;-76
2024/01/18 05:03:07;;;;;;;13.63;8.27;;;;;;;;;;5068234;28;20078;-76
2024/01/18 05:05:33;;;;;;;12.10;7.75;;;;;;;;;;5052271;28;20469;-76
2024/01/18 05:07:59;;;;;;;12.40;7.35;;;;;;;;;;5044462;28;20231;-76
2024/01/18 05:10:24;;;;;;;13.95;7.82;;;;;;;;;;5063815;28;20086;-76
2024/01/18 05:12:49;;;;;;;13.18;8.68;;;;;;;;;;5064219;28;20537;-76
2024/01/18 05:15:15;;;;;;;13.60;8.13;;;;;;;;;;5067108;28;20032;-76
2024/01/18 05:17:41;;;;;;;12.63;8.20;;;;;;;;;;5052404;28;20025;-76
2024/01/18 05:20:07;;;;;;;14.38;8.48;;;;;;;;;;5071287;28;20024;-76
2024/01/18 05:22:34;;;;;;;14.50;8.68;;;;;;;;;;5068139;28;20036;-76
2024/01/18 05:25:00;;;;;;;13.90;8.85;;;;;;;;;;5063088;28;20021;-76
2024/01/18 05:27:30;;;;;;;15.50;8.00;;;;;;;;;;5059856;28;20036;-76
2024/01/18 05:29:57;;;;;;;13.20;8.57;;;;;;;;;;5065837;28;20044;-76
2024/01/18 05:32:22;;;;;;;12.77;8.50;;;;;;;;;;5048987;28;20043;-76
2024/01/18 05:34:52;;;;;;;12.65;7.60;;;;;;;;;;5039043;28;20032;-76
2024/01/18 05:37:18;;;;;;;14.15;8.32;;;;;;;;;;5060457;28;20555;-76
2024/01/18 05:39:44;;;;;;;12.80;8.40;;;;;;;;;;5065259;28;20044;-76
2024/01/18 05:42:10;;;;;;;14.25;8.32;;;;;;;;;;5069958;28;20397;-76
2024/01/18 05:44:35;;;;;;;11.63;8.07;;;;;;;;;;5067260;28;20095;-76
2024/01/18 05:47:02;;;;;;;14.07;8.05;;;;;;;;;;5064703;28;20028;-76
2024/01/18 05:49:28;;;;;;;13.07;7.80;;;;;;;;;;5062875;28;20040;-76
2024/01/18 05:51:53;;;;;;;14.50;8.27;;;;;;;;;;5065499;28;20028;-76
2024/01/18 05:54:19;;;;;;;13.85;8.27;;;;;;;;;;5058943;28;20487;-76
2024/01/18 05:56:48;;;;;;;11.35;7.13;;;;;;;;;;5061618;28;20486;-76
2024/01/18 05:59:13;;;;;;;13.60;7.22;;;;;;;;;;5058080;28;20466;-76
2024/01/18 06:01:39;;;;;;;12.45;7.00;;;;;;;;;;5066095;28;20039;-76
2024/01/18 06:04:04;;;;;;;13.35;6.93;;;;;;;;;;5064127;28;20466;-76
2024/01/18 06:06:31;;;;;;;11.52;7.03;;;;;;;;;;5063119;28;20029;-76
2024/01/18 06:08:57;;;;;;;12.38;7.03;;;;;;;;;;5069898;28;20058;-76
2024/01/18 06:11:22;;;;;;;10.02;6.53;;;;;;;;;;5050075;28;20025;-76
2024/01/18 06:13:47;;;;;;;11.23;7.72;;;;;;;;;;5040661;28;20078;-76
2024/01/18 06:16:15;;;;;;;12.25;7.53;;;;;;;;;;5039592;28;20474;-76
2024/01/18 06:18:42;;;;;;;11.25;7.10;;;;;;;;;;5073434;28;20021;-76
2024/01/18 06:21:09;;;;;;;12.82;7.28;;;;;;;;;;5051692;28;20107;-76
2024/01/18 06:23:37;;;;;;;14.68;7.03;;;;;;;;;;5055351;28;20493;-76
2024/01/18 06:26:08;;;;;;;12.48;6.60;;;;;;;;;;5067041;28;20029;-76
2024/01/18 06:28:34;;;;;;;13.02;6.72;;;;;;;;;;5044274;28;20048;-76
2024/01/18 06:30:59;;;;;;;11.60;6.95;;;;;;;;;;5068149;28;20071;-76
2024/01/18 06:33:26;;;;;;;11.45;6.68;;;;;;;;;;5034204;28;22001;-76
2024/01/18 06:35:52;;;;;;;10.30;6.60;;;;;;;;;;5043444;28;20016;-76
2024/01/18 06:38:20;;;;;;;11.70;6.60;;;;;;;;;;5070690;28;20029;-76
2024/01/18 06:40:45;;;;;;;11.30;6.75;;;;;;;;;;5030486;28;20060;-76
2024/01/18 06:43:11;;;;;;;11.60;6.43;;;;;;;;;;5067679;28;20509;-76
2024/01/18 06:45:36;;;;;;;11.77;6.53;;;;;;;;;;5052224;28;20418;-76
2024/01/18 06:48:02;;;;;;;10.90;6.45;;;;;;;;;;5049400;28;20017;-76
2024/01/18 06:50:27;;;;;;;10.00;6.45;;;;;;;;;;5062565;28;21204;-76
2024/01/18 06:52:53;;;;;;;10.10;6.40;;;;;;;;;;5061110;28;20107;-76
2024/01/18 06:55:19;;;;;;;10.57;6.32;;;;;;;;;;5041166;28;20371;-76
2024/01/18 06:57:50;;;;;;;10.40;5.57;;;;;;;;;;5065557;28;20028;-76
2024/01/18 07:00:19;;;;;;;8.77;5.40;;;;;;;;;;5045450;28;20056;-76
2024/01/18 07:02:46;;;;;;;10.63;6.45;;;;;;;;;;5052223;28;20024;-76
2024/01/18 07:05:12;;;;;;;12.18;6.15;;;;;;;;;;5070193;28;20036;-76
2024/01/18 07:07:37;;;;;;;11.20;6.25;;;;;;;;;;5067892;28;20025;-76
2024/01/18 07:10:03;;;;;;;15.63;6.35;;;;;;;;;;5068173;28;20104;-76
2024/01/18 07:12:29;;;;;;;10.40;6.53;;;;;;;;;;5053444;28;20565;-76
2024/01/18 07:14:56;;;;;;;11.73;6.05;;;;;;;;;;5049000;28;20033;-76
2024/01/18 07:17:21;;;;;;;7.63;5.05;;;;;;;;;;5043550;28;20029;-76
2024/01/18 07:19:47;;;;;;;8.80;5.00;;;;;;;;;;5069059;28;20043;-84
2024/01/18 07:22:12;;;;;;;9.57;5.70;;;;;;;;;;5067871;28;20020;-84
2024/01/18 07:24:38;;;;;;;10.60;5.20;;;;;;;;;;5064857;28;20447;-85
2024/01/18 07:27:09;;;;;;;12.07;6.00;;;;;;;;;;5065386;28;20036;-86
2024/01/18 07:29:34;;;;;;;9.80;6.00;;;;;;;;;;5045818;28;20056;-85
2024/01/18 07:32:00;;;;;;;10.63;6.03;;;;;;;;;;5063973;28;20394;-85
2024/01/18 07:34:26;;;;;;;14.52;6.00;;;;;;;;;;5068600;28;20024;-85
2024/01/18 07:36:52;;;;;;;9.40;5.38;;;;;;;;;;5062987;28;20024;-85
2024/01/18 07:39:19;;;;;;;9.88;5.40;;;;;;;;;;5046799;28;20127;-84
2024/01/18 07:41:48;;;;;;;8.45;5.07;;;;;;;;;;5059962;28;20035;-84
2024/01/18 07:44:13;;;;;;;11.07;6.00;;;;;;;;;;5048877;28;20033;-85
2024/01/18 07:46:39;;;;;;;8.98;4.85;;;;;;;;;;5049167;28;20193;-85
2024/01/18 07:49:04;;;;;;;8.82;5.18;;;;;;;;;;5052668;28;20036;-84
2024/01/18 07:51:30;;;;;;;11.35;5.70;;;;;;;;;;5064154;28;20509;-86
2024/01/18 07:53:55;;;;;;;9.02;4.97;;;;;;;;;;5068599;28;20028;-86
2024/01/18 07:56:21;;;;;;;10.00;5.57;;;;;;;;;;5073700;28;20169;-86
2024/01/18 07:58:47;;;;;;;8.15;4.88;;;;;;;;;;5067769;28;20028;-87
2024/01/18 08:01:16;;;;;;;8.32;5.13;;;;;;;;;;5072301;28;20024;-85
2024/01/18 08:03:42;;;;;;;9.98;4.68;;;;;;;;;;5050360;28;20020;-86
2024/01/18 08:06:08;;;;;;;10.73;5.55;;;;;;;;;;5074183;28;20027;-85
2024/01/18 08:08:33;;;;;;;10.60;5.68;;;;;;;;;;5064566;28;20036;-86
2024/01/18 08:10:59;;;;;;;8.95;5.25;;;;;;;;;;5073276;28;20163;-85
2024/01/18 08:13:25;;;;;;;8.65;4.93;;;;;;;;;;5073251;28;20073;-85
2024/01/18 08:15:51;;;;;;;8.82;4.38;;;;;;;;;;5051844;28;20036;-85
2024/01/18 08:18:17;;;;;;;9.23;4.78;;;;;;;;;;5050699;28;20046;-85
2024/01/18 08:20:43;;;;;;;6.88;4.88;;;;;;;;;;5056197;28;20078;-85
2024/01/18 08:23:09;;;;;;;7.95;5.13;;;;;;;;;;5066746;28;20021;-86
2024/01/18 08:25:36;;;;;;;10.63;5.30;;;;;;;;;;5066447;28;20040;-86
2024/01/18 08:28:01;;;;;;;7.22;4.45;;;;;;;;;;5072053;28;20021;-76
2024/01/18 08:30:27;;;;;;;8.45;5.13;;;;;;;;;;5070562;28;20111;-76
2024/01/18 08:32:52;;;;;;;10.68;4.90;;;;;;;;;;5052292;28;20046;-76
2024/01/18 08:35:17;;;;;;;8.25;4.45;;;;;;;;;;5069688;28;20452;-76
2024/01/18 08:37:43;;;;;;;6.97;4.53;;;;;;;;;;5048698;28;20487;-76
2024/01/18 08:40:09;;;;;;;10.50;5.18;;;;;;;;;;5051316;28;20021;-76
2024/01/18 08:42:35;;;;;;;11.65;5.55;;;;;;;;;;5050518;28;20041;-76
2024/01/18 08:45:01;;;;;;;10.27;5.20;;;;;;;;;;5066751;28;20095;-76
2024/01/18 08:47:26;;;;;;;8.65;4.95;;;;;;;;;;5052785;28;20103;-76
2024/01/18 08:49:52;;;;;;;8.75;4.80;;;;;;;;;;5053045;28;20115;-76
2024/01/18 08:52:17;;;;;;;9.35;5.10;;;;;;;;;;5052019;28;20021;-76
2024/01/18 08:54:43;;;;;;;7.43;4.50;;;;;;;;;;5070842;28;20031;-77
2024/01/18 08:57:08;;;;;;;8.00;4.88;;;;;;;;;;5071224;28;20059;-76
2024/01/18 08:59:34;;;;;;;10.63;5.28;;;;;;;;;;5052055;28;20438;-76
2024/01/18 09:01:59;;;;;;;11.30;6.07;;;;;;;;;;5067279;28;20158;-76
2024/01/18 09:04:25;;;;;;;10.43;6.32;;;;;;;;;;5049661;28;20486;-77
2024/01/18 09:06:51;;;;;;;11.68;6.25;;;;;;;;;;5070340;28;20146;-76
2024/01/18 09:09:17;;;;;;;10.32;5.78;;;;;;;;;;5054277;28;20031;-76
2024/01/18 09:11:42;;;;;;;9.73;5.75;;;;;;;;;;5066910;28;20552;-76
2024/01/18 09:14:07;;;;;;;9.15;5.72;;;;;;;;;;5043090;28;20028;-77
2024/01/18 09:16:33;;;;;;;8.77;5.75;;;;;;;;;;5065977;28;20028;-76
2024/01/18 09:18:59;;;;;;;8.80;5.43;;;;;;;;;;5053767;28;20375;-76
2024/01/18 09:21:25;;;;;;;10.55;5.95;;;;;;;;;;5049468;28;20060;-76
2024/01/18 09:23:50;;;;;;;9.52;6.07;;;;;;;;;;5072950;28;20055;-76
2024/01/18 09:26:16;;;;;;;9.68;6.18;;;;;;;;;;5049784;28;20048;-76
2024/01/18 09:28:43;;;;;;;12.18;5.80;;;;;;;;;;5072509;28;20029;-77
2024/01/18 09:31:09;;;;;;;9.75;5.63;;;;;;;;;;5069276;28;20520;-76
2024/01/18 09:33:37;;;;;;;11.20;5.72;;;;;;;;;;5071296;28;20046;-77
2024/01/18 09:36:06;;;;;;;8.23;5.35;;;;;;;;;;5066375;28;20025;-76
2024/01/18 09:38:33;;;;;;;8.82;5.40;;;;;;;;;;5063712;28;20039;-86
2024/01/18 09:41:06;;;;;;;9.45;5.57;;;;;;;;;;5066990;28;20111;-86
2024/01/18 09:43:39;;;;;;;10.07;5.00;;;;;;;;;;5052966;28;20056;-86
2024/01/18 09:46:06;;;;;;;7.03;4.22;;;;;;;;;;5068159;28;20067;-86
2024/01/18 09:48:33;;;;;;;10.05;5.00;;;;;;;;;;5071206;28;20104;-86
2024/01/18 09:50:59;;;;;;;7.40;4.95;;;;;;;;;;5072191;28;20022;-86
2024/01/18 09:53:24;;;;;;;9.25;5.30;;;;;;;;;;5071153;28;20037;-85
2024/01/18 09:55:51;;;;;;;10.25;5.57;;;;;;;;;;5070022;28;20032;-85
2024/01/18 09:58:16;;;;;;;7.97;4.72;;;;;;;;;;5071400;28;20446;-86
2024/01/18 10:00:57;;;;;;;8.98;4.60;;;;;;;;;;5051546;28;20119;-85
2024/01/18 10:03:24;;;;;;;6.60;4.53;;;;;;;;;;5052558;28;20029;-86
2024/01/18 10:05:49;;;;;;;12.77;4.32;;;;;;;;;;5053897;28;20032;-86
2024/01/18 10:08:15;;;;;;;5.93;3.67;;;;;;;;;;5052792;28;20028;-86
2024/01/18 10:10:42;;;;;;;8.60;4.25;;;;;;;;;;5062083;28;20047;-85
2024/01/18 10:13:10;;;;;;;6.93;3.95;;;;;;;;;;5071079;28;20052;-86
2024/01/18 10:15:36;;;;;;;5.45;3.90;;;;;;;;;;5053756;28;20031;-85
2024/01/18 10:18:04;;;;;;;9.50;4.30;;;;;;;;;;5070542;28;20028;-85
2024/01/18 10:20:30;;;;;;;7.55;4.25;;;;;;;;;;5073622;28;20020;-86
2024/01/18 10:22:55;;;;;;;8.85;3.75;;;;;;;;;;5071396;28;20342;-85
2024/01/18 10:25:26;;;;;;;7.40;4.40;;;;;;;;;;5072785;28;20028;-86
2024/01/18 10:27:56;;;;;;;5.68;3.28;;;;;;;;;;5070479;28;20020;-86
2024/01/18 10:30:22;;;;;;;5.07;3.58;;;;;;;;;;5071086;28;20424;-86
2024/01/18 10:32:49;;;;;;;7.07;3.20;;;;;;;;;;5071743;28;20094;-86
2024/01/18 10:35:20;;;;;;;5.50;3.45;;;;;;;;;;5057970;28;20439;-86
2024/01/18 10:37:47;;;;;;;7.20;3.70;;;;;;;;;;5070072;28;20105;-86
2024/01/18 10:40:19;;;;;;;7.25;3.60;;;;;;;;;;5051439;28;20029;-85
2024/01/18 10:42:46;;;;;;;6.00;3.40;;;;;;;;;;5053548;28;20402;-85
2024/01/18 10:45:12;;;;;;;5.97;3.42;;;;;;;;;;5067528;28;20044;-86
2024/01/18 10:47:37;;;;;;;6.20;3.20;;;;;;;;;;5070325;28;20029;-84
2024/01/18 10:50:04;;;;;;;5.88;3.40;;;;;;;;;;5069747;28;20032;-77
2024/01/18 10:52:30;;;;;;;6.72;3.65;;;;;;;;;;5071333;28;20082;-76
2024/01/18 10:54:57;;;;;;;6.60;3.38;;;;;;;;;;5067025;28;20036;-77
2024/01/18 10:57:25;;;;;;;7.82;3.67;;;;;;;;;;5064852;28;20035;-77
2024/01/18 10:59:52;;;;;;;8.27;3.53;;;;;;;;;;5070450;28;20055;-76
2024/01/18 11:02:18;;;;;;;7.72;4.25;;;;;;;;;;5064636;28;20082;-77
2024/01/18 11:04:44;;;;;;;7.07;3.58;;;;;;;;;;5070525;28;20062;-76
2024/01/18 11:07:10;;;;;;;8.18;3.70;;;;;;;;;;5050427;28;20472;-76
2024/01/18 11:09:37;;;;;;;7.85;3.72;;;;;;;;;;5049573;28;20029;-76
2024/01/18 11:12:03;;;;;;;6.68;3.92;;;;;;;;;;5068105;28;20041;-76
2024/01/18 11:14:30;;;;;;;6.18;3.72;;;;;;;;;;5048356;28;20024;-76
2024/01/18 11:17:12;;;;;;;8.35;3.85;;;;;;;;;;5068738;28;20470;-76
2024/01/18 11:19:42;;;;;;;7.05;3.50;;;;;;;;;;5053391;28;20154;-76
2024/01/18 11:22:10;;;;;;;7.68;3.95;;;;;;;;;;5054195;28;20039;-76
2024/01/18 11:24:36;;;;;;;8.07;3.85;;;;;;;;;;5069929;28;20060;-76
2024/01/18 11:27:22;;;;;;;6.90;3.58;;;;;;;;;;5054472;28;20035;-76
2024/01/18 11:29:49;;;;;;;5.95;3.78;;;;;;;;;;5073063;28;20032;-77
2024/01/18 11:32:17;;;;;;;6.13;3.38;;;;;;;;;;5071261;28;20032;-77
2024/01/18 11:34:45;;;;;;;7.22;3.67;;;;;;;;;;5072720;28;20025;-77
2024/01/18 11:37:11;;;;;;;7.78;3.25;;;;;;;;;;5071979;28;20025;-76
2024/01/18 11:39:49;;;;;;;5.88;3.45;;;;;;;;;;5054487;28;20554;-76
2024/01/18 11:42:26;;;;;;;6.40;3.38;;;;;;;;;;5049502;28;20097;-76
2024/01/18 11:45:03;;;;;;;5.82;2.80;;;;;;;;;;5069552;28;20024;-76
2024/01/18 11:47:30;;;;;;;5.20;2.80;;;;;;;;;;5072339;28;20047;-76
2024/01/18 11:49:56;;;;;;;5.80;2.60;;;;;;;;;;5074603;28;20557;-76
2024/01/18 11:52:22;;;;;;;4.38;2.17;;;;;;;;;;5053952;28;20501;-76
2024/01/18 11:54:55;;;;;;;5.80;2.53;;;;;;;;;;5069564;28;20082;-77
2024/01/18 11:57:22;;;;;;;4.15;2.42;;;;;;;;;;5070501;28;20069;-76
2024/01/18 11:59:48;;;;;;;4.95;2.20;;;;;;;;;;5064532;28;20059;-76
2024/01/18 12:02:15;;;;;;;5.45;2.33;;;;;;;;;;5074073;28;20438;-76
2024/01/18 12:04:40;;;;;;;6.32;2.10;;;;;;;;;;5047983;28;20106;-76
2024/01/18 12:07:07;;;;;;;7.25;2.35;;;;;;;;;;5049280;28;20040;-76
2024/01/18 12:09:34;;;;;;;5.32;2.05;;;;;;;;;;5062193;28;20039;-76
2024/01/18 12:12:00;;;;;;;6.00;2.17;;;;;;;;;;5030226;28;20059;-76
2024/01/18 12:14:26;;;;;;;5.93;2.45;;;;;;;;;;5048235;28;20567;-76
2024/01/18 12:16:52;;;;;;;4.80;2.00;;;;;;;;;;5056789;28;20345;-76
2024/01/18 12:19:32;;;;;;;3.65;2.17;;;;;;;;;;5068887;28;20079;-76
2024/01/18 12:22:00;;;;;;;7.53;2.42;;;;;;;;;;5045138;28;20051;-76
2024/01/18 12:24:25;;;;;;;5.85;2.20;;;;;;;;;;5042155;28;20059;-76
2024/01/18 12:26:51;;;;;;;4.22;2.05;;;;;;;;;;5068696;28;20425;-76
2024/01/18 12:29:16;;;;;;;3.30;1.95;;;;;;;;;;5064013;28;20118;-76
2024/01/18 12:31:46;;;;;;;4.53;1.98;;;;;;;;;;5049489;28;20024;-76
2024/01/18 12:34:11;;;;;;;4.57;2.00;;;;;;;;;;5063777;28;20033;-76
2024/01/18 12:36:38;;;;;;;5.25;2.20;;;;;;;;;;5050243;28;20505;-76
2024/01/18 12:39:03;;;;;;;3.33;1.92;;;;;;;;;;5063961;28;20553;-76
2024/01/18 12:41:28;;;;;;;7.32;2.00;;;;;;;;;;5025982;28;20147;-76
2024/01/18 12:43:54;;;;;;;4.55;2.20;;;;;;;;;;5043481;28;20029;-76
2024/01/18 12:46:19;;;;;;;6.65;2.17;;;;;;;;;;5046773;28;20130;-77
2024/01/18 12:48:45;;;;;;;4.65;1.90;;;;;;;;;;5062630;28;20123;-76
2024/01/18 12:51:10;;;;;;;3.47;2.10;;;;;;;;;;5066212;28;20032;-76
2024/01/18 12:53:36;;;;;;;4.88;1.67;;;;;;;;;;5065696;28;20040;-76
2024/01/18 12:56:01;;;;;;;4.38;1.63;;;;;;;;;;5073732;28;20024;-76
2024/01/18 12:58:29;;;;;;;3.95;1.15;;;;;;;;;;5048110;28;20478;-76
2024/01/18 13:00:54;;;;;;;3.75;1.00;;;;;;;;;;5066275;28;20025;-77
2024/01/18 13:03:20;;;;;;;1.75;1.10;;;;;;;;;;5071805;28;20055;-76
2024/01/18 13:05:47;;;;;;;4.03;0.88;;;;;;;;;;5052260;28;20506;-76
2024/01/18 13:08:15;;;;;;;3.72;1.05;;;;;;;;;;5056113;28;20490;-85
2024/01/18 13:10:41;;;;;;;2.60;0.98;;;;;;;;;;5066050;28;20031;-85
2024/01/18 13:13:08;;;;;;;4.18;1.17;;;;;;;;;;5072866;28;20162;-85
2024/01/18 13:15:34;;;;;;;2.90;0.90;;;;;;;;;;5064704;28;20032;-86
2024/01/18 13:18:02;;;;;;;5.35;1.10;;;;;;;;;;5056051;28;20035;-87
2024/01/18 13:20:28;;;;;;;1.85;0.77;;;;;;;;;;5065100;28;20040;-85
2024/01/18 13:22:53;;;;;;;2.97;0.80;;;;;;;;;;5067211;28;20035;-86
2024/01/18 13:25:19;;;;;;;3.35;0.50;;;;;;;;;;5044841;28;20055;-86
2024/01/18 13:27:45;;;;;;;1.58;0.70;;;;;;;;;;5056481;28;20496;-86
2024/01/18 13:30:11;;;;;;;3.03;0.75;;;;;;;;;;5054063;28;20032;-86
2024/01/18 13:32:37;;;;;;;2.25;0.60;;;;;;;;;;5067389;28;20032;-86
2024/01/18 13:35:03;;;;;;;2.60;0.70;;;;;;;;;;5059266;28;20375;-87
2024/01/18 13:37:29;;;;;;;1.42;0.60;;;;;;;;;;5066933;28;20082;-85
2024/01/18 13:39:54;;;;;;;1.95;0.80;;;;;;;;;;5068707;28;20417;-86
2024/01/18 13:42:19;;;;;;;1.42;0.50;;;;;;;;;;5050899;28;20655;-85
2024/01/18 13:44:46;;;;;;;2.15;0.60;;;;;;;;;;5045637;28;20490;-86
2024/01/18 13:47:11;;;;;;;4.88;0.90;;;;;;;;;;5046187;28;20028;-85
2024/01/18 13:49:38;;;;;;;1.98;0.73;;;;;;;;;;5052776;28;20029;-85
2024/01/18 13:52:04;;;;;;;2.75;0.77;;;;;;;;;;5064180;28;20056;-85
2024/01/18 13:54:29;;;;;;;4.07;0.80;;;;;;;;;;5064585;28;20032;-85
2024/01/18 13:56:55;;;;;;;1.48;0.70;;;;;;;;;;5050104;28;20032;-86
2024/01/18 13:59:20;;;;;;;0.95;0.40;;;;;;;;;;5050288;28;20036;-84
2024/01/18 14:01:46;;;;;;;1.10;0.60;;;;;;;;;;5043522;28;20465;-86
2024/01/18 14:04:11;;;;;;;2.05;0.68;;;;;;;;;;5062207;28;20513;-85
2024/01/18 14:06:38;;;;;;;0.75;0.45;;;;;;;;;;5062852;28;20455;-85
2024/01/18 14:09:03;;;;;;;2.08;0.52;;;;;;;;;;5060872;28;20086;-85
2024/01/18 14:11:29;;;;;;;1.75;0.73;;;;;;;;;;5060571;28;20037;-85
2024/01/18 14:13:54;;;;;;;1.55;0.60;;;;;;;;;;5045280;28;20080;-86
2024/01/18 14:16:20;;;;;;;1.65;0.50;;;;;;;;;;5058512;28;20440;-86
2024/01/18 14:18:46;;;;;;;1.65;0.55;;;;;;;;;;5053718;28;20032;-76
2024/01/18 14:21:12;;;;;;;4.05;0.82;;;;;;;;;;5068720;28;20024;-76
2024/01/18 14:23:37;;;;;;;3.15;0.77;;;;;;;;;;5067810;28;20497;-75
2024/01/18 14:26:03;;;;;;;4.85;0.90;;;;;;;;;;5051314;28;20090;-76